aviador You're here:

KMQJ Decoded Metar

in
Report Time2018-01-17 17:56:00
UTC Time2018-01-17 18:17:17
Flight Rules vfr VFR
Wind210° at 04 kt
W.Decomp.*RWY 25: 3.1 kt HW 2.6 kt LCW
RWY 16: 2.6 kt HW 3.1 kt RCW
W.Rank210° ranks 6
Current wind is below 210° avg. (8.1)
Visibility9999 m
Phenomena:N/A
Clouds:N/A
Expected CloudBase > 1,200 ft AGL from Temp-Dew spread
CeilingNone
Temp-9°C
Dew Point-12°C (79% RH)
AAT-13.6°C
QNH1034 hPa
Raw Report
KMQJ 171756Z AUTO 21004KT 10SM CLR M09/M12 A3053 RMK AO1=

Extra information for KMQJ:More info

Social comments